sensor_id;sensor_type;location;lat;lon;timestamp;pressure;altitude;pressure_sealevel;temperature;humidity
43155;BME280;34212;51.018;13.586;2022-12-29T00:01:28;97222.53;;;9.43;89.99
43155;BME280;34212;51.018;13.586;2022-12-29T00:06:30;97221.78;;;9.49;90.23
43155;BME280;34212;51.018;13.586;2022-12-29T00:11:31;97227.38;;;9.54;90.31
43155;BME280;34212;51.018;13.586;2022-12-29T00:16:33;97225.34;;;9.56;90.10
43155;BME280;34212;51.018;13.586;2022-12-29T00:21:34;97209.00;;;9.59;89.93
43155;BME280;34212;51.018;13.586;2022-12-29T00:32:21;97194.38;;;9.70;90.48
43155;BME280;34212;51.018;13.586;2022-12-29T00:37:45;97191.34;;;9.73;90.54
43155;BME280;34212;51.018;13.586;2022-12-29T00:43:26;97182.97;;;9.76;91.19
43155;BME280;34212;51.018;13.586;2022-12-29T00:48:46;97174.78;;;9.78;90.99
43155;BME280;34212;51.018;13.586;2022-12-29T00:54:07;97171.50;;;9.76;91.16
43155;BME280;34212;51.018;13.586;2022-12-29T00:59:09;97169.22;;;9.73;91.65
43155;BME280;34212;51.018;13.586;2022-12-29T01:04:11;97165.47;;;9.67;91.37
43155;BME280;34212;51.018;13.586;2022-12-29T01:09:13;97164.00;;;9.64;91.74
43155;BME280;34212;51.018;13.586;2022-12-29T01:14:34;97168.06;;;9.60;91.73
43155;BME280;34212;51.018;13.586;2022-12-29T01:19:36;97163.13;;;9.57;91.98
43155;BME280;34212;51.018;13.586;2022-12-29T01:24:38;97166.78;;;9.56;91.82
43155;BME280;34212;51.018;13.586;2022-12-29T01:29:39;97161.00;;;9.53;92.35
43155;BME280;34212;51.018;13.586;2022-12-29T01:34:41;97159.38;;;9.52;92.05
43155;BME280;34212;51.018;13.586;2022-12-29T01:39:42;97150.34;;;9.53;92.13
43155;BME280;34212;51.018;13.586;2022-12-29T01:44:48;97152.84;;;9.54;91.98
43155;BME280;34212;51.018;13.586;2022-12-29T01:49:51;97149.16;;;9.55;92.43
43155;BME280;34212;51.018;13.586;2022-12-29T01:54:53;97147.16;;;9.57;92.09
43155;BME280;34212;51.018;13.586;2022-12-29T01:59:58;97132.81;;;9.58;92.01
43155;BME280;34212;51.018;13.586;2022-12-29T02:05:14;97132.00;;;9.58;92.28
43155;BME280;34212;51.018;13.586;2022-12-29T02:10:22;97133.00;;;9.57;91.65
43155;BME280;34212;51.018;13.586;2022-12-29T02:15:28;97113.91;;;9.53;91.67
43155;BME280;34212;51.018;13.586;2022-12-29T02:36:06;97095.22;;;9.46;91.44
43155;BME280;34212;51.018;13.586;2022-12-29T02:41:19;97092.56;;;9.46;91.46
43155;BME280;34212;51.018;13.586;2022-12-29T02:51:39;97099.59;;;9.54;91.31
43155;BME280;34212;51.018;13.586;2022-12-29T02:56:44;97094.41;;;9.67;91.57
43155;BME280;34212;51.018;13.586;2022-12-29T03:01:52;97097.56;;;9.78;91.22
43155;BME280;34212;51.018;13.586;2022-12-29T03:07:30;97079.44;;;9.88;91.76
43155;BME280;34212;51.018;13.586;2022-12-29T03:18:08;97078.88;;;9.99;91.52
43155;BME280;34212;51.018;13.586;2022-12-29T03:23:11;97078.75;;;10.07;91.32
43155;BME280;34212;51.018;13.586;2022-12-29T03:28:17;97081.66;;;10.12;91.54
43155;BME280;34212;51.018;13.586;2022-12-29T03:33:21;97069.59;;;10.16;91.72
43155;BME280;34212;51.018;13.586;2022-12-29T03:38:26;97062.84;;;10.21;91.19
43155;BME280;34212;51.018;13.586;2022-12-29T03:43:30;97066.59;;;10.26;91.21
43155;BME280;34212;51.018;13.586;2022-12-29T03:48:32;97056.38;;;10.30;91.02
43155;BME280;34212;51.018;13.586;2022-12-29T03:53:35;97065.00;;;10.32;90.94
43155;BME280;34212;51.018;13.586;2022-12-29T03:58:37;97052.28;;;10.34;91.03
43155;BME280;34212;51.018;13.586;2022-12-29T04:03:42;97043.28;;;10.35;90.98
43155;BME280;34212;51.018;13.586;2022-12-29T04:08:46;97045.13;;;10.34;89.71
43155;BME280;34212;51.018;13.586;2022-12-29T04:13:47;97038.34;;;10.32;89.14
43155;BME280;34212;51.018;13.586;2022-12-29T04:18:53;97032.63;;;10.35;88.57
43155;BME280;34212;51.018;13.586;2022-12-29T04:23:54;97032.41;;;10.36;87.14
43155;BME280;34212;51.018;13.586;2022-12-29T04:28:56;97031.19;;;10.39;87.39
43155;BME280;34212;51.018;13.586;2022-12-29T04:34:17;97027.28;;;10.35;86.14
43155;BME280;34212;51.018;13.586;2022-12-29T04:39:21;97038.34;;;10.32;86.37
43155;BME280;34212;51.018;13.586;2022-12-29T04:44:22;97044.09;;;10.35;85.82
43155;BME280;34212;51.018;13.586;2022-12-29T04:49:46;97041.69;;;10.40;84.81
43155;BME280;34212;51.018;13.586;2022-12-29T04:55:06;97061.72;;;10.36;85.18
43155;BME280;34212;51.018;13.586;2022-12-29T05:00:08;97057.22;;;10.37;85.44
43155;BME280;34212;51.018;13.586;2022-12-29T05:05:12;97069.53;;;10.38;85.35
43155;BME280;34212;51.018;13.586;2022-12-29T05:10:17;97083.25;;;10.35;85.30
43155;BME280;34212;51.018;13.586;2022-12-29T05:15:18;97087.38;;;10.37;85.33
43155;BME280;34212;51.018;13.586;2022-12-29T05:20:20;97078.16;;;10.40;86.07
43155;BME280;34212;51.018;13.586;2022-12-29T05:25:21;97069.16;;;10.41;86.25
43155;BME280;34212;51.018;13.586;2022-12-29T05:30:30;97088.03;;;10.46;85.93
43155;BME280;34212;51.018;13.586;2022-12-29T05:35:32;97091.75;;;10.52;86.70
43155;BME280;34212;51.018;13.586;2022-12-29T05:40:34;97108.00;;;10.57;87.17
43155;BME280;34212;51.018;13.586;2022-12-29T05:45:40;97100.41;;;10.60;88.00
43155;BME280;34212;51.018;13.586;2022-12-29T05:51:00;97096.31;;;10.64;88.49
43155;BME280;34212;51.018;13.586;2022-12-29T05:56:12;97083.25;;;10.70;88.60
43155;BME280;34212;51.018;13.586;2022-12-29T06:01:14;97097.78;;;10.67;88.82
43155;BME280;34212;51.018;13.586;2022-12-29T06:06:18;97098.59;;;10.68;88.63
43155;BME280;34212;51.018;13.586;2022-12-29T06:11:20;97098.00;;;10.66;88.36
43155;BME280;34212;51.018;13.586;2022-12-29T06:16:28;97100.84;;;10.64;88.32
43155;BME280;34212;51.018;13.586;2022-12-29T06:21:33;97111.50;;;10.64;88.40
43155;BME280;34212;51.018;13.586;2022-12-29T06:26:35;97099.78;;;10.58;88.69
43155;BME280;34212;51.018;13.586;2022-12-29T06:31:37;97083.56;;;10.53;89.02
43155;BME280;34212;51.018;13.586;2022-12-29T06:36:40;97087.63;;;10.49;89.11
43155;BME280;34212;51.018;13.586;2022-12-29T06:41:42;97080.66;;;10.48;89.27
43155;BME280;34212;51.018;13.586;2022-12-29T06:46:56;97072.03;;;10.46;89.67
43155;BME280;34212;51.018;13.586;2022-12-29T06:51:58;97074.47;;;10.41;89.37
43155;BME280;34212;51.018;13.586;2022-12-29T06:57:01;97071.56;;;10.36;89.15
43155;BME280;34212;51.018;13.586;2022-12-29T07:02:03;97071.94;;;10.26;89.08
43155;BME280;34212;51.018;13.586;2022-12-29T07:07:04;97064.47;;;10.22;89.25
43155;BME280;34212;51.018;13.586;2022-12-29T07:12:06;97088.22;;;10.16;89.47
43155;BME280;34212;51.018;13.586;2022-12-29T07:17:07;97089.00;;;10.10;89.50
43155;BME280;34212;51.018;13.586;2022-12-29T07:22:09;97095.16;;;10.11;90.16
43155;BME280;34212;51.018;13.586;2022-12-29T07:27:10;97093.19;;;10.20;90.06
43155;BME280;34212;51.018;13.586;2022-12-29T07:32:11;97073.59;;;10.34;90.39
43155;BME280;34212;51.018;13.586;2022-12-29T07:37:16;97070.13;;;10.33;90.06
43155;BME280;34212;51.018;13.586;2022-12-29T07:42:18;97085.69;;;10.30;90.09
43155;BME280;34212;51.018;13.586;2022-12-29T07:47:25;97080.91;;;10.25;90.19
43155;BME280;34212;51.018;13.586;2022-12-29T07:52:26;97077.25;;;10.26;90.21
43155;BME280;34212;51.018;13.586;2022-12-29T07:57:28;97074.38;;;10.28;89.97
43155;BME280;34212;51.018;13.586;2022-12-29T08:02:32;97077.28;;;10.33;90.66
43155;BME280;34212;51.018;13.586;2022-12-29T08:07:34;97091.25;;;10.35;90.51
43155;BME280;34212;51.018;13.586;2022-12-29T08:12:36;97107.84;;;10.37;90.15
43155;BME280;34212;51.018;13.586;2022-12-29T08:17:38;97117.53;;;10.38;89.78
43155;BME280;34212;51.018;13.586;2022-12-29T08:22:40;97104.00;;;10.46;89.79
43155;BME280;34212;51.018;13.586;2022-12-29T08:27:41;97108.38;;;10.54;89.89
43155;BME280;34212;51.018;13.586;2022-12-29T08:32:42;97107.38;;;10.61;90.54
43155;BME280;34212;51.018;13.586;2022-12-29T08:37:44;97111.13;;;10.67;90.43
43155;BME280;34212;51.018;13.586;2022-12-29T08:42:45;97114.41;;;10.69;90.06
43155;BME280;34212;51.018;13.586;2022-12-29T08:47:46;97127.31;;;10.66;89.67
43155;BME280;34212;51.018;13.586;2022-12-29T08:52:48;97105.31;;;10.57;89.94
43155;BME280;34212;51.018;13.586;2022-12-29T08:57:49;97111.44;;;10.51;89.97
43155;BME280;34212;51.018;13.586;2022-12-29T09:02:53;97106.50;;;10.48;89.33
43155;BME280;34212;51.018;13.586;2022-12-29T09:07:54;97112.22;;;10.45;90.07
43155;BME280;34212;51.018;13.586;2022-12-29T09:12:56;97122.84;;;10.38;89.36
43155;BME280;34212;51.018;13.586;2022-12-29T09:17:57;97106.81;;;10.31;89.13
43155;BME280;34212;51.018;13.586;2022-12-29T09:22:59;97119.03;;;10.26;88.57
43155;BME280;34212;51.018;13.586;2022-12-29T09:28:00;97106.72;;;10.25;88.33
43155;BME280;34212;51.018;13.586;2022-12-29T09:33:07;97113.00;;;10.38;87.54
43155;BME280;34212;51.018;13.586;2022-12-29T09:38:08;97106.28;;;10.49;87.26
43155;BME280;34212;51.018;13.586;2022-12-29T09:43:25;97104.69;;;10.55;86.71
43155;BME280;34212;51.018;13.586;2022-12-29T09:48:36;97097.16;;;10.65;87.02
43155;BME280;34212;51.018;13.586;2022-12-29T09:53:43;97096.41;;;10.78;86.82
43155;BME280;34212;51.018;13.586;2022-12-29T09:58:51;97102.81;;;10.90;86.04
43155;BME280;34212;51.018;13.586;2022-12-29T10:03:55;97103.06;;;11.02;85.07
43155;BME280;34212;51.018;13.586;2022-12-29T10:24:19;97103.16;;;11.35;85.95
43155;BME280;34212;51.018;13.586;2022-12-29T10:29:24;97097.22;;;11.46;86.13
43155;BME280;34212;51.018;13.586;2022-12-29T10:39:49;97093.81;;;11.99;86.85
43155;BME280;34212;51.018;13.586;2022-12-29T10:44:52;97085.16;;;12.23;86.93
43155;BME280;34212;51.018;13.586;2022-12-29T10:49:54;97077.31;;;12.42;86.67
43155;BME280;34212;51.018;13.586;2022-12-29T10:54:57;97065.38;;;12.44;86.44
43155;BME280;34212;51.018;13.586;2022-12-29T11:00:00;97058.41;;;12.37;86.00
43155;BME280;34212;51.018;13.586;2022-12-29T11:05:03;97072.78;;;12.42;86.25
43155;BME280;34212;51.018;13.586;2022-12-29T11:15:19;97045.53;;;12.72;86.18
43155;BME280;34212;51.018;13.586;2022-12-29T11:20:37;97052.31;;;12.75;86.79
43155;BME280;34212;51.018;13.586;2022-12-29T11:25:39;97053.59;;;12.65;86.40
43155;BME280;34212;51.018;13.586;2022-12-29T11:30:42;97043.50;;;12.61;86.82
43155;BME280;34212;51.018;13.586;2022-12-29T11:35:44;97048.00;;;12.67;86.22
43155;BME280;34212;51.018;13.586;2022-12-29T11:40:45;97050.25;;;12.77;86.36
43155;BME280;34212;51.018;13.586;2022-12-29T11:45:47;97057.88;;;12.73;84.92
43155;BME280;34212;51.018;13.586;2022-12-29T11:50:53;97051.88;;;12.84;84.74
43155;BME280;34212;51.018;13.586;2022-12-29T12:01:03;97047.63;;;12.63;85.33
43155;BME280;34212;51.018;13.586;2022-12-29T12:06:07;97047.25;;;12.53;84.91
43155;BME280;34212;51.018;13.586;2022-12-29T12:11:14;97056.31;;;12.45;85.00
43155;BME280;34212;51.018;13.586;2022-12-29T12:16:21;97040.28;;;12.39;84.61
43155;BME280;34212;51.018;13.586;2022-12-29T12:26:50;97022.22;;;12.21;83.80
43155;BME280;34212;51.018;13.586;2022-12-29T12:31:59;97025.34;;;12.11;83.40
43155;BME280;34212;51.018;13.586;2022-12-29T12:37:08;97045.31;;;12.09;82.60
43155;BME280;34212;51.018;13.586;2022-12-29T13:03:01;96995.22;;;12.42;80.74
43155;BME280;34212;51.018;13.586;2022-12-29T13:24:26;97023.03;;;12.35;81.94
43155;BME280;34212;51.018;13.586;2022-12-29T13:29:37;97012.13;;;12.30;81.30
43155;BME280;34212;51.018;13.586;2022-12-29T13:40:04;97014.78;;;12.36;79.47
43155;BME280;34212;51.018;13.586;2022-12-29T13:45:13;97027.56;;;12.34;79.08
43155;BME280;34212;51.018;13.586;2022-12-29T13:50:17;97026.75;;;12.34;78.83
43155;BME280;34212;51.018;13.586;2022-12-29T13:55:22;97037.22;;;12.35;78.63
43155;BME280;34212;51.018;13.586;2022-12-29T14:00:26;97030.84;;;12.36;78.06
43155;BME280;34212;51.018;13.586;2022-12-29T14:05:31;97020.34;;;12.35;77.25
43155;BME280;34212;51.018;13.586;2022-12-29T14:10:34;97024.69;;;12.29;77.16
43155;BME280;34212;51.018;13.586;2022-12-29T14:15:39;97034.59;;;12.22;77.23
43155;BME280;34212;51.018;13.586;2022-12-29T14:20:49;97028.22;;;12.16;77.09
43155;BME280;34212;51.018;13.586;2022-12-29T14:30:54;97046.31;;;12.08;76.81
43155;BME280;34212;51.018;13.586;2022-12-29T14:35:56;97058.88;;;12.00;76.46
43155;BME280;34212;51.018;13.586;2022-12-29T14:46:21;97071.59;;;11.98;77.31
43155;BME280;34212;51.018;13.586;2022-12-29T14:51:30;97075.31;;;11.97;77.74
43155;BME280;34212;51.018;13.586;2022-12-29T14:56:32;97076.13;;;11.98;78.42
43155;BME280;34212;51.018;13.586;2022-12-29T15:01:51;97063.81;;;11.97;78.54
43155;BME280;34212;51.018;13.586;2022-12-29T15:06:53;97088.47;;;11.92;77.54
43155;BME280;34212;51.018;13.586;2022-12-29T15:12:04;97080.66;;;11.91;76.88
43155;BME280;34212;51.018;13.586;2022-12-29T15:17:30;97095.63;;;11.78;76.85
43155;BME280;34212;51.018;13.586;2022-12-29T15:22:31;97105.28;;;11.60;76.86
43155;BME280;34212;51.018;13.586;2022-12-29T15:27:33;97099.47;;;11.49;77.40
43155;BME280;34212;51.018;13.586;2022-12-29T15:32:42;97105.03;;;11.48;77.88
43155;BME280;34212;51.018;13.586;2022-12-29T15:37:44;97107.31;;;11.44;78.04
43155;BME280;34212;51.018;13.586;2022-12-29T15:47:46;97107.88;;;11.33;77.56
43155;BME280;34212;51.018;13.586;2022-12-29T15:52:50;97132.31;;;11.30;76.68
43155;BME280;34212;51.018;13.586;2022-12-29T15:57:55;97144.00;;;11.29;76.83
43155;BME280;34212;51.018;13.586;2022-12-29T16:02:59;97146.25;;;11.25;77.58
43155;BME280;34212;51.018;13.586;2022-12-29T16:08:01;97154.84;;;11.21;78.59
43155;BME280;34212;51.018;13.586;2022-12-29T16:13:15;97151.75;;;11.10;78.74
43155;BME280;34212;51.018;13.586;2022-12-29T16:18:23;97155.59;;;11.01;78.03
43155;BME280;34212;51.018;13.586;2022-12-29T16:23:26;97161.16;;;11.00;77.72
43155;BME280;34212;51.018;13.586;2022-12-29T16:28:36;97160.91;;;10.95;77.60
43155;BME280;34212;51.018;13.586;2022-12-29T16:38:44;97177.03;;;10.80;78.49
43155;BME280;34212;51.018;13.586;2022-12-29T16:43:47;97180.88;;;10.71;78.75
43155;BME280;34212;51.018;13.586;2022-12-29T16:48:55;97183.31;;;10.66;78.87
43155;BME280;34212;51.018;13.586;2022-12-29T16:53:57;97185.13;;;10.65;78.35
43155;BME280;34212;51.018;13.586;2022-12-29T16:59:05;97186.38;;;10.62;78.44
43155;BME280;34212;51.018;13.586;2022-12-29T17:04:08;97187.34;;;10.55;78.81
43155;BME280;34212;51.018;13.586;2022-12-29T17:19:26;97195.59;;;10.32;79.24
43155;BME280;34212;51.018;13.586;2022-12-29T17:24:29;97196.97;;;10.28;79.63
43155;BME280;34212;51.018;13.586;2022-12-29T17:29:32;97210.13;;;10.29;79.72
43155;BME280;34212;51.018;13.586;2022-12-29T17:34:34;97218.63;;;10.25;79.67
43155;BME280;34212;51.018;13.586;2022-12-29T17:39:36;97225.38;;;10.21;80.47
43155;BME280;34212;51.018;13.586;2022-12-29T17:44:37;97227.59;;;10.17;81.41
43155;BME280;34212;51.018;13.586;2022-12-29T17:49:38;97225.31;;;10.14;81.98
43155;BME280;34212;51.018;13.586;2022-12-29T17:54:45;97229.56;;;10.08;82.09
43155;BME280;34212;51.018;13.586;2022-12-29T17:59:47;97231.34;;;10.01;81.92
43155;BME280;34212;51.018;13.586;2022-12-29T18:04:49;97235.59;;;9.95;82.54
43155;BME280;34212;51.018;13.586;2022-12-29T18:09:51;97235.59;;;9.95;83.05
43155;BME280;34212;51.018;13.586;2022-12-29T18:14:52;97233.81;;;10.03;83.08
43155;BME280;34212;51.018;13.586;2022-12-29T18:19:53;97248.09;;;10.16;83.84
43155;BME280;34212;51.018;13.586;2022-12-29T18:24:55;97241.19;;;10.22;84.12
43155;BME280;34212;51.018;13.586;2022-12-29T18:29:57;97240.34;;;10.22;84.05
43155;BME280;34212;51.018;13.586;2022-12-29T18:34:58;97234.53;;;10.11;84.88
43155;BME280;34212;51.018;13.586;2022-12-29T18:40:00;97239.78;;;10.05;85.00
43155;BME280;34212;51.018;13.586;2022-12-29T18:45:01;97244.28;;;10.04;85.19
43155;BME280;34212;51.018;13.586;2022-12-29T18:50:10;97233.91;;;10.09;85.88
43155;BME280;34212;51.018;13.586;2022-12-29T18:55:13;97228.03;;;10.21;86.77
43155;BME280;34212;51.018;13.586;2022-12-29T19:00:14;97231.22;;;10.31;86.93
43155;BME280;34212;51.018;13.586;2022-12-29T19:10:19;97232.25;;;10.30;86.63
43155;BME280;34212;51.018;13.586;2022-12-29T19:15:22;97232.66;;;10.27;86.52
43155;BME280;34212;51.018;13.586;2022-12-29T19:25:36;97230.84;;;10.34;87.51
43155;BME280;34212;51.018;13.586;2022-12-29T19:30:37;97244.81;;;10.36;87.43
43155;BME280;34212;51.018;13.586;2022-12-29T19:35:39;97236.81;;;10.36;87.80
43155;BME280;34212;51.018;13.586;2022-12-29T19:40:45;97238.47;;;10.37;88.30
43155;BME280;34212;51.018;13.586;2022-12-29T19:45:48;97229.84;;;10.35;87.87
43155;BME280;34212;51.018;13.586;2022-12-29T19:50:53;97241.13;;;10.37;88.42
43155;BME280;34212;51.018;13.586;2022-12-29T19:56:00;97222.84;;;10.34;88.33
43155;BME280;34212;51.018;13.586;2022-12-29T20:01:02;97217.53;;;10.34;88.11
43155;BME280;34212;51.018;13.586;2022-12-29T20:06:05;97224.47;;;10.28;88.15
43155;BME280;34212;51.018;13.586;2022-12-29T20:11:14;97216.94;;;10.17;88.48
43155;BME280;34212;51.018;13.586;2022-12-29T20:16:17;97221.78;;;10.07;87.78
43155;BME280;34212;51.018;13.586;2022-12-29T20:21:20;97236.25;;;9.98;88.25
43155;BME280;34212;51.018;13.586;2022-12-29T20:26:23;97231.22;;;9.88;88.37
43155;BME280;34212;51.018;13.586;2022-12-29T20:31:29;97222.72;;;9.78;88.38
43155;BME280;34212;51.018;13.586;2022-12-29T20:36:31;97232.94;;;9.59;87.08
43155;BME280;34212;51.018;13.586;2022-12-29T20:41:33;97246.94;;;9.46;87.53
43155;BME280;34212;51.018;13.586;2022-12-29T20:46:35;97243.44;;;9.46;87.62
43155;BME280;34212;51.018;13.586;2022-12-29T20:51:44;97251.06;;;9.49;87.47
43155;BME280;34212;51.018;13.586;2022-12-29T20:57:06;97244.91;;;9.48;87.68
43155;BME280;34212;51.018;13.586;2022-12-29T21:02:18;97252.25;;;9.46;87.69
43155;BME280;34212;51.018;13.586;2022-12-29T21:07:20;97264.50;;;9.41;87.35
43155;BME280;34212;51.018;13.586;2022-12-29T21:12:22;97256.22;;;9.36;87.26
43155;BME280;34212;51.018;13.586;2022-12-29T21:17:23;97250.47;;;9.32;86.90
43155;BME280;34212;51.018;13.586;2022-12-29T21:22:25;97266.34;;;9.25;86.92
43155;BME280;34212;51.018;13.586;2022-12-29T21:27:26;97280.75;;;9.16;87.36
43155;BME280;34212;51.018;13.586;2022-12-29T21:32:28;97280.16;;;9.06;86.54
43155;BME280;34212;51.018;13.586;2022-12-29T21:37:29;97274.59;;;9.01;86.07
43155;BME280;34212;51.018;13.586;2022-12-29T21:42:31;97277.41;;;8.99;85.72
43155;BME280;34212;51.018;13.586;2022-12-29T21:47:32;97282.94;;;8.98;85.15
43155;BME280;34212;51.018;13.586;2022-12-29T21:52:52;97297.41;;;8.95;84.86
43155;BME280;34212;51.018;13.586;2022-12-29T21:57:53;97306.59;;;8.93;85.00
43155;BME280;34212;51.018;13.586;2022-12-29T22:03:13;97303.09;;;8.92;84.24
43155;BME280;34212;51.018;13.586;2022-12-29T22:08:33;97298.16;;;8.89;84.01
43155;BME280;34212;51.018;13.586;2022-12-29T22:13:53;97313.28;;;8.89;83.75
43155;BME280;34212;51.018;13.586;2022-12-29T22:18:56;97318.75;;;8.87;83.83
43155;BME280;34212;51.018;13.586;2022-12-29T22:23:57;97322.81;;;8.83;84.08
43155;BME280;34212;51.018;13.586;2022-12-29T22:29:00;97323.16;;;8.80;83.75
43155;BME280;34212;51.018;13.586;2022-12-29T22:34:02;97327.34;;;8.74;83.61
43155;BME280;34212;51.018;13.586;2022-12-29T22:39:04;97336.34;;;8.73;83.35
43155;BME280;34212;51.018;13.586;2022-12-29T22:44:05;97325.72;;;8.73;83.51
43155;BME280;34212;51.018;13.586;2022-12-29T22:49:07;97324.06;;;8.72;83.26
43155;BME280;34212;51.018;13.586;2022-12-29T22:54:08;97327.72;;;8.71;83.78
43155;BME280;34212;51.018;13.586;2022-12-29T22:59:10;97319.13;;;8.69;83.26
43155;BME280;34212;51.018;13.586;2022-12-29T23:04:12;97325.41;;;8.68;82.65
43155;BME280;34212;51.018;13.586;2022-12-29T23:09:33;97342.03;;;8.70;82.77
43155;BME280;34212;51.018;13.586;2022-12-29T23:14:35;97345.50;;;8.71;82.91
43155;BME280;34212;51.018;13.586;2022-12-29T23:19:36;97343.66;;;8.71;82.83
43155;BME280;34212;51.018;13.586;2022-12-29T23:24:38;97342.94;;;8.77;82.56
43155;BME280;34212;51.018;13.586;2022-12-29T23:29:39;97352.41;;;8.80;82.62
43155;BME280;34212;51.018;13.586;2022-12-29T23:34:43;97327.66;;;8.79;81.77
43155;BME280;34212;51.018;13.586;2022-12-29T23:39:44;97346.63;;;8.76;81.96
43155;BME280;34212;51.018;13.586;2022-12-29T23:44:46;97358.63;;;8.72;81.97
43155;BME280;34212;51.018;13.586;2022-12-29T23:49:47;97355.31;;;8.70;81.51
43155;BME280;34212;51.018;13.586;2022-12-29T23:54:49;97361.66;;;8.69;82.23
43155;BME280;34212;51.018;13.586;2022-12-29T23:59:50;97360.81;;;8.69;82.59
